sensor_id;sensor_type;location;lat;lon;timestamp;P1;durP1;ratioP1;P2;durP2;ratioP2
71202;SDS011;58929;47.490;19.090;2023-01-15T00:02:27;57.67;;;28.25;;
71202;SDS011;58929;47.490;19.090;2023-01-15T00:04:55;52.92;;;29.15;;
71202;SDS011;58929;47.490;19.090;2023-01-15T00:07:23;62.50;;;32.88;;
71202;SDS011;58929;47.490;19.090;2023-01-15T00:09:51;54.88;;;30.65;;
71202;SDS011;58929;47.490;19.090;2023-01-15T00:12:19;57.83;;;30.58;;
71202;SDS011;58929;47.490;19.090;2023-01-15T00:14:47;45.88;;;26.45;;
71202;SDS011;58929;47.490;19.090;2023-01-15T00:17:16;51.42;;;27.33;;
71202;SDS011;58929;47.490;19.090;2023-01-15T00:19:45;52.38;;;27.52;;
71202;SDS011;58929;47.490;19.090;2023-01-15T00:22:13;46.05;;;27.50;;
71202;SDS011;58929;47.490;19.090;2023-01-15T00:24:41;45.13;;;24.88;;
71202;SDS011;58929;47.490;19.090;2023-01-15T00:27:29;43.17;;;24.70;;
71202;SDS011;58929;47.490;19.090;2023-01-15T00:30:08;47.10;;;24.30;;
71202;SDS011;58929;47.490;19.090;2023-01-15T00:32:38;47.63;;;25.15;;
71202;SDS011;58929;47.490;19.090;2023-01-15T00:35:06;41.65;;;23.95;;
71202;SDS011;58929;47.490;19.090;2023-01-15T00:37:36;44.80;;;25.98;;
71202;SDS011;58929;47.490;19.090;2023-01-15T00:40:05;46.60;;;25.52;;
71202;SDS011;58929;47.490;19.090;2023-01-15T00:42:33;42.97;;;23.90;;
71202;SDS011;58929;47.490;19.090;2023-01-15T00:45:03;47.13;;;26.00;;
71202;SDS011;58929;47.490;19.090;2023-01-15T00:47:37;45.83;;;25.70;;
71202;SDS011;58929;47.490;19.090;2023-01-15T00:50:07;44.20;;;25.08;;
71202;SDS011;58929;47.490;19.090;2023-01-15T00:52:35;47.60;;;27.33;;
71202;SDS011;58929;47.490;19.090;2023-01-15T00:55:04;42.38;;;25.00;;
71202;SDS011;58929;47.490;19.090;2023-01-15T00:57:32;39.15;;;23.27;;
71202;SDS011;58929;47.490;19.090;2023-01-15T01:00:03;42.03;;;24.30;;
71202;SDS011;58929;47.490;19.090;2023-01-15T01:02:32;44.03;;;25.60;;
71202;SDS011;58929;47.490;19.090;2023-01-15T01:05:02;46.08;;;25.05;;
71202;SDS011;58929;47.490;19.090;2023-01-15T01:07:30;43.30;;;25.25;;
71202;SDS011;58929;47.490;19.090;2023-01-15T01:09:58;43.53;;;24.63;;
71202;SDS011;58929;47.490;19.090;2023-01-15T01:12:25;46.10;;;25.00;;
71202;SDS011;58929;47.490;19.090;2023-01-15T01:14:54;52.05;;;27.80;;
71202;SDS011;58929;47.490;19.090;2023-01-15T01:17:22;41.45;;;24.15;;
71202;SDS011;58929;47.490;19.090;2023-01-15T01:19:50;41.85;;;22.48;;
71202;SDS011;58929;47.490;19.090;2023-01-15T01:22:20;42.17;;;23.85;;
71202;SDS011;58929;47.490;19.090;2023-01-15T01:24:48;42.17;;;24.25;;
71202;SDS011;58929;47.490;19.090;2023-01-15T01:27:16;45.40;;;25.83;;
71202;SDS011;58929;47.490;19.090;2023-01-15T01:29:44;40.65;;;24.00;;
71202;SDS011;58929;47.490;19.090;2023-01-15T01:32:12;43.78;;;24.60;;
71202;SDS011;58929;47.490;19.090;2023-01-15T01:34:40;45.58;;;24.95;;
71202;SDS011;58929;47.490;19.090;2023-01-15T01:37:09;44.20;;;23.80;;
71202;SDS011;58929;47.490;19.090;2023-01-15T01:39:39;40.88;;;24.05;;
71202;SDS011;58929;47.490;19.090;2023-01-15T01:42:09;48.63;;;25.17;;
71202;SDS011;58929;47.490;19.090;2023-01-15T01:45:02;45.25;;;26.45;;
71202;SDS011;58929;47.490;19.090;2023-01-15T01:47:30;37.97;;;22.90;;
71202;SDS011;58929;47.490;19.090;2023-01-15T01:50:00;38.90;;;23.05;;
71202;SDS011;58929;47.490;19.090;2023-01-15T01:52:30;55.70;;;26.02;;
71202;SDS011;58929;47.490;19.090;2023-01-15T01:55:01;45.13;;;24.60;;
71202;SDS011;58929;47.490;19.090;2023-01-15T01:57:30;38.75;;;22.60;;
71202;SDS011;58929;47.490;19.090;2023-01-15T01:59:58;44.90;;;24.10;;
71202;SDS011;58929;47.490;19.090;2023-01-15T02:02:38;38.47;;;22.50;;
71202;SDS011;58929;47.490;19.090;2023-01-15T02:05:07;40.50;;;21.90;;
71202;SDS011;58929;47.490;19.090;2023-01-15T02:07:36;43.40;;;23.80;;
71202;SDS011;58929;47.490;19.090;2023-01-15T02:10:05;39.85;;;22.88;;
71202;SDS011;58929;47.490;19.090;2023-01-15T02:12:35;44.33;;;24.42;;
71202;SDS011;58929;47.490;19.090;2023-01-15T02:15:05;44.85;;;21.67;;
71202;SDS011;58929;47.490;19.090;2023-01-15T02:17:37;38.53;;;23.38;;
71202;SDS011;58929;47.490;19.090;2023-01-15T02:20:15;41.50;;;23.65;;
71202;SDS011;58929;47.490;19.090;2023-01-15T02:22:50;36.78;;;22.02;;
71202;SDS011;58929;47.490;19.090;2023-01-15T02:25:24;39.28;;;23.48;;
71202;SDS011;58929;47.490;19.090;2023-01-15T02:27:58;38.10;;;22.60;;
71202;SDS011;58929;47.490;19.090;2023-01-15T02:30:29;43.90;;;23.17;;
71202;SDS011;58929;47.490;19.090;2023-01-15T02:33:01;42.20;;;22.45;;
71202;SDS011;58929;47.490;19.090;2023-01-15T02:35:33;35.47;;;21.52;;
71202;SDS011;58929;47.490;19.090;2023-01-15T02:38:04;38.75;;;22.05;;
71202;SDS011;58929;47.490;19.090;2023-01-15T02:40:33;37.92;;;22.80;;
71202;SDS011;58929;47.490;19.090;2023-01-15T02:43:03;40.13;;;22.42;;
71202;SDS011;58929;47.490;19.090;2023-01-15T02:45:32;38.75;;;23.48;;
71202;SDS011;58929;47.490;19.090;2023-01-15T02:48:08;39.15;;;21.95;;
71202;SDS011;58929;47.490;19.090;2023-01-15T02:50:38;37.38;;;22.05;;
71202;SDS011;58929;47.490;19.090;2023-01-15T02:53:08;35.88;;;21.75;;
71202;SDS011;58929;47.490;19.090;2023-01-15T02:55:38;38.50;;;23.63;;
71202;SDS011;58929;47.490;19.090;2023-01-15T02:58:20;37.65;;;22.13;;
71202;SDS011;58929;47.490;19.090;2023-01-15T03:00:50;38.70;;;22.55;;
71202;SDS011;58929;47.490;19.090;2023-01-15T03:03:20;46.80;;;27.00;;
71202;SDS011;58929;47.490;19.090;2023-01-15T03:05:51;37.13;;;21.40;;
71202;SDS011;58929;47.490;19.090;2023-01-15T03:08:21;35.10;;;21.23;;
71202;SDS011;58929;47.490;19.090;2023-01-15T03:10:51;33.15;;;20.52;;
71202;SDS011;58929;47.490;19.090;2023-01-15T03:13:26;41.47;;;22.08;;
71202;SDS011;58929;47.490;19.090;2023-01-15T03:15:57;35.53;;;21.02;;
71202;SDS011;58929;47.490;19.090;2023-01-15T03:18:46;38.17;;;21.77;;
71202;SDS011;58929;47.490;19.090;2023-01-15T03:21:18;34.78;;;21.40;;
71202;SDS011;58929;47.490;19.090;2023-01-15T03:23:50;37.72;;;22.17;;
71202;SDS011;58929;47.490;19.090;2023-01-15T03:26:24;38.22;;;22.27;;
71202;SDS011;58929;47.490;19.090;2023-01-15T03:28:54;35.35;;;21.23;;
71202;SDS011;58929;47.490;19.090;2023-01-15T03:31:23;35.38;;;20.85;;
71202;SDS011;58929;47.490;19.090;2023-01-15T03:33:51;54.92;;;21.10;;
71202;SDS011;58929;47.490;19.090;2023-01-15T03:36:21;38.05;;;20.60;;
71202;SDS011;58929;47.490;19.090;2023-01-15T03:38:49;43.15;;;22.40;;
71202;SDS011;58929;47.490;19.090;2023-01-15T03:41:34;45.85;;;23.25;;
71202;SDS011;58929;47.490;19.090;2023-01-15T03:44:11;37.60;;;21.63;;
71202;SDS011;58929;47.490;19.090;2023-01-15T03:46:48;39.53;;;22.05;;
71202;SDS011;58929;47.490;19.090;2023-01-15T03:49:19;48.28;;;27.20;;
71202;SDS011;58929;47.490;19.090;2023-01-15T03:51:50;37.15;;;22.95;;
71202;SDS011;58929;47.490;19.090;2023-01-15T03:54:24;35.35;;;22.35;;
71202;SDS011;58929;47.490;19.090;2023-01-15T03:56:56;32.13;;;19.23;;
71202;SDS011;58929;47.490;19.090;2023-01-15T03:59:28;35.13;;;20.42;;
71202;SDS011;58929;47.490;19.090;2023-01-15T04:02:01;43.95;;;21.40;;
71202;SDS011;58929;47.490;19.090;2023-01-15T04:04:30;33.03;;;20.60;;
71202;SDS011;58929;47.490;19.090;2023-01-15T04:07:00;49.03;;;24.33;;
71202;SDS011;58929;47.490;19.090;2023-01-15T04:09:31;32.20;;;20.02;;
71202;SDS011;58929;47.490;19.090;2023-01-15T04:12:04;34.10;;;19.45;;
71202;SDS011;58929;47.490;19.090;2023-01-15T04:14:39;33.47;;;19.98;;
71202;SDS011;58929;47.490;19.090;2023-01-15T04:17:13;33.67;;;20.05;;
71202;SDS011;58929;47.490;19.090;2023-01-15T04:19:42;35.30;;;20.83;;
71202;SDS011;58929;47.490;19.090;2023-01-15T04:22:11;34.22;;;20.10;;
71202;SDS011;58929;47.490;19.090;2023-01-15T04:24:39;32.83;;;20.52;;
71202;SDS011;58929;47.490;19.090;2023-01-15T04:27:07;37.53;;;21.25;;
71202;SDS011;58929;47.490;19.090;2023-01-15T04:29:35;36.47;;;21.30;;
71202;SDS011;58929;47.490;19.090;2023-01-15T04:32:04;35.25;;;20.20;;
71202;SDS011;58929;47.490;19.090;2023-01-15T04:34:33;33.95;;;21.27;;
71202;SDS011;58929;47.490;19.090;2023-01-15T04:37:01;38.25;;;23.60;;
71202;SDS011;58929;47.490;19.090;2023-01-15T04:39:29;35.35;;;20.27;;
71202;SDS011;58929;47.490;19.090;2023-01-15T04:41:57;40.55;;;22.35;;
71202;SDS011;58929;47.490;19.090;2023-01-15T04:44:43;30.98;;;18.75;;
71202;SDS011;58929;47.490;19.090;2023-01-15T04:47:12;32.15;;;19.67;;
71202;SDS011;58929;47.490;19.090;2023-01-15T04:49:40;30.83;;;19.45;;
71202;SDS011;58929;47.490;19.090;2023-01-15T04:52:08;30.95;;;18.67;;
71202;SDS011;58929;47.490;19.090;2023-01-15T04:54:36;32.78;;;19.02;;
71202;SDS011;58929;47.490;19.090;2023-01-15T04:57:04;33.00;;;18.58;;
71202;SDS011;58929;47.490;19.090;2023-01-15T04:59:32;31.13;;;19.17;;
71202;SDS011;58929;47.490;19.090;2023-01-15T05:02:00;31.45;;;19.98;;
71202;SDS011;58929;47.490;19.090;2023-01-15T05:04:33;30.13;;;19.33;;
71202;SDS011;58929;47.490;19.090;2023-01-15T05:07:02;28.80;;;17.98;;
71202;SDS011;58929;47.490;19.090;2023-01-15T05:09:30;28.70;;;17.92;;
71202;SDS011;58929;47.490;19.090;2023-01-15T05:11:58;30.33;;;19.00;;
71202;SDS011;58929;47.490;19.090;2023-01-15T05:14:26;28.27;;;17.55;;
71202;SDS011;58929;47.490;19.090;2023-01-15T05:16:54;36.40;;;21.10;;
71202;SDS011;58929;47.490;19.090;2023-01-15T05:19:22;33.63;;;19.98;;
71202;SDS011;58929;47.490;19.090;2023-01-15T05:21:52;27.50;;;17.48;;
71202;SDS011;58929;47.490;19.090;2023-01-15T05:24:20;28.85;;;17.67;;
71202;SDS011;58929;47.490;19.090;2023-01-15T05:26:49;30.45;;;19.67;;
71202;SDS011;58929;47.490;19.090;2023-01-15T05:29:17;26.30;;;17.17;;
71202;SDS011;58929;47.490;19.090;2023-01-15T05:31:45;31.88;;;19.95;;
71202;SDS011;58929;47.490;19.090;2023-01-15T05:34:13;35.15;;;20.90;;
71202;SDS011;58929;47.490;19.090;2023-01-15T05:36:41;31.05;;;18.92;;
71202;SDS011;58929;47.490;19.090;2023-01-15T05:39:10;29.38;;;17.58;;
71202;SDS011;58929;47.490;19.090;2023-01-15T05:41:38;28.17;;;16.77;;
71202;SDS011;58929;47.490;19.090;2023-01-15T05:44:18;29.77;;;18.02;;
71202;SDS011;58929;47.490;19.090;2023-01-15T05:46:46;27.45;;;16.90;;
71202;SDS011;58929;47.490;19.090;2023-01-15T05:49:15;30.92;;;18.67;;
71202;SDS011;58929;47.490;19.090;2023-01-15T05:51:43;29.33;;;17.42;;
71202;SDS011;58929;47.490;19.090;2023-01-15T05:54:13;27.42;;;17.23;;
71202;SDS011;58929;47.490;19.090;2023-01-15T05:56:42;29.13;;;19.27;;
71202;SDS011;58929;47.490;19.090;2023-01-15T05:59:13;26.27;;;16.70;;
71202;SDS011;58929;47.490;19.090;2023-01-15T06:01:41;24.52;;;15.32;;
71202;SDS011;58929;47.490;19.090;2023-01-15T06:04:10;29.65;;;16.92;;
71202;SDS011;58929;47.490;19.090;2023-01-15T06:06:39;24.88;;;15.48;;
71202;SDS011;58929;47.490;19.090;2023-01-15T06:09:07;27.05;;;16.38;;
71202;SDS011;58929;47.490;19.090;2023-01-15T06:11:37;28.92;;;17.88;;
71202;SDS011;58929;47.490;19.090;2023-01-15T06:14:05;29.00;;;16.27;;
71202;SDS011;58929;47.490;19.090;2023-01-15T06:16:33;24.95;;;15.25;;
71202;SDS011;58929;47.490;19.090;2023-01-15T06:19:02;25.42;;;15.98;;
71202;SDS011;58929;47.490;19.090;2023-01-15T06:21:31;25.80;;;16.38;;
71202;SDS011;58929;47.490;19.090;2023-01-15T06:23:59;28.13;;;16.80;;
71202;SDS011;58929;47.490;19.090;2023-01-15T06:26:27;28.13;;;16.65;;
71202;SDS011;58929;47.490;19.090;2023-01-15T06:28:56;32.55;;;19.88;;
71202;SDS011;58929;47.490;19.090;2023-01-15T06:31:24;26.17;;;16.48;;
71202;SDS011;58929;47.490;19.090;2023-01-15T06:33:53;29.83;;;17.23;;
71202;SDS011;58929;47.490;19.090;2023-01-15T06:36:22;31.35;;;16.13;;
71202;SDS011;58929;47.490;19.090;2023-01-15T06:38:51;26.02;;;16.38;;
71202;SDS011;58929;47.490;19.090;2023-01-15T06:41:20;32.33;;;19.17;;
71202;SDS011;58929;47.490;19.090;2023-01-15T06:44:08;33.60;;;18.20;;
71202;SDS011;58929;47.490;19.090;2023-01-15T06:46:54;27.45;;;15.85;;
71202;SDS011;58929;47.490;19.090;2023-01-15T06:49:40;27.02;;;17.30;;
71202;SDS011;58929;47.490;19.090;2023-01-15T06:52:09;29.88;;;16.35;;
71202;SDS011;58929;47.490;19.090;2023-01-15T06:54:37;26.77;;;16.48;;
71202;SDS011;58929;47.490;19.090;2023-01-15T06:57:07;26.73;;;16.05;;
71202;SDS011;58929;47.490;19.090;2023-01-15T06:59:36;35.58;;;17.65;;
71202;SDS011;58929;47.490;19.090;2023-01-15T07:02:04;29.63;;;17.65;;
71202;SDS011;58929;47.490;19.090;2023-01-15T07:04:32;29.88;;;16.63;;
71202;SDS011;58929;47.490;19.090;2023-01-15T07:07:00;29.73;;;17.75;;
71202;SDS011;58929;47.490;19.090;2023-01-15T07:09:28;33.67;;;18.35;;
71202;SDS011;58929;47.490;19.090;2023-01-15T07:11:56;28.48;;;17.27;;
71202;SDS011;58929;47.490;19.090;2023-01-15T07:14:25;32.33;;;17.85;;
71202;SDS011;58929;47.490;19.090;2023-01-15T07:16:55;35.72;;;18.30;;
71202;SDS011;58929;47.490;19.090;2023-01-15T07:19:24;31.50;;;17.67;;
71202;SDS011;58929;47.490;19.090;2023-01-15T07:21:52;31.95;;;17.70;;
71202;SDS011;58929;47.490;19.090;2023-01-15T07:24:21;30.90;;;18.52;;
71202;SDS011;58929;47.490;19.090;2023-01-15T07:26:49;32.28;;;18.02;;
71202;SDS011;58929;47.490;19.090;2023-01-15T07:29:18;29.90;;;17.70;;
71202;SDS011;58929;47.490;19.090;2023-01-15T07:31:46;29.92;;;17.80;;
71202;SDS011;58929;47.490;19.090;2023-01-15T07:34:15;31.65;;;18.42;;
71202;SDS011;58929;47.490;19.090;2023-01-15T07:36:44;31.45;;;18.02;;
71202;SDS011;58929;47.490;19.090;2023-01-15T07:39:12;34.70;;;20.25;;
71202;SDS011;58929;47.490;19.090;2023-01-15T07:41:40;31.85;;;18.63;;
71202;SDS011;58929;47.490;19.090;2023-01-15T07:44:25;31.27;;;17.90;;
71202;SDS011;58929;47.490;19.090;2023-01-15T07:47:14;38.47;;;21.15;;
71202;SDS011;58929;47.490;19.090;2023-01-15T07:50:02;36.80;;;22.17;;
71202;SDS011;58929;47.490;19.090;2023-01-15T07:52:30;35.65;;;19.77;;
71202;SDS011;58929;47.490;19.090;2023-01-15T07:54:58;34.88;;;19.42;;
71202;SDS011;58929;47.490;19.090;2023-01-15T07:57:27;33.05;;;19.02;;
71202;SDS011;58929;47.490;19.090;2023-01-15T07:59:55;30.13;;;18.60;;
71202;SDS011;58929;47.490;19.090;2023-01-15T08:02:24;34.53;;;19.42;;
71202;SDS011;58929;47.490;19.090;2023-01-15T08:04:52;30.90;;;18.52;;
71202;SDS011;58929;47.490;19.090;2023-01-15T08:07:23;39.10;;;20.55;;
71202;SDS011;58929;47.490;19.090;2023-01-15T08:09:51;36.15;;;20.60;;
71202;SDS011;58929;47.490;19.090;2023-01-15T08:12:19;34.20;;;19.23;;
71202;SDS011;58929;47.490;19.090;2023-01-15T08:15:05;33.97;;;20.80;;
71202;SDS011;58929;47.490;19.090;2023-01-15T08:20:11;34.72;;;20.10;;
71202;SDS011;58929;47.490;19.090;2023-01-15T08:22:41;33.80;;;19.70;;
71202;SDS011;58929;47.490;19.090;2023-01-15T08:25:10;30.50;;;19.42;;
71202;SDS011;58929;47.490;19.090;2023-01-15T08:27:39;37.97;;;21.77;;
71202;SDS011;58929;47.490;19.090;2023-01-15T08:30:08;42.35;;;22.15;;
71202;SDS011;58929;47.490;19.090;2023-01-15T08:32:37;39.35;;;21.27;;
71202;SDS011;58929;47.490;19.090;2023-01-15T08:35:06;41.33;;;23.23;;
71202;SDS011;58929;47.490;19.090;2023-01-15T08:37:36;34.17;;;22.13;;
71202;SDS011;58929;47.490;19.090;2023-01-15T08:40:05;36.05;;;21.88;;
71202;SDS011;58929;47.490;19.090;2023-01-15T08:42:34;36.05;;;22.25;;
71202;SDS011;58929;47.490;19.090;2023-01-15T08:45:02;38.58;;;22.48;;
71202;SDS011;58929;47.490;19.090;2023-01-15T08:47:30;39.50;;;23.00;;
71202;SDS011;58929;47.490;19.090;2023-01-15T08:49:58;39.22;;;21.52;;
71202;SDS011;58929;47.490;19.090;2023-01-15T08:52:26;37.60;;;23.58;;
71202;SDS011;58929;47.490;19.090;2023-01-15T08:54:54;36.40;;;22.05;;
71202;SDS011;58929;47.490;19.090;2023-01-15T08:57:24;35.97;;;20.10;;
71202;SDS011;58929;47.490;19.090;2023-01-15T08:59:52;39.40;;;22.38;;
71202;SDS011;58929;47.490;19.090;2023-01-15T09:02:27;39.83;;;23.40;;
71202;SDS011;58929;47.490;19.090;2023-01-15T09:04:55;81.43;;;47.33;;
71202;SDS011;58929;47.490;19.090;2023-01-15T09:07:23;56.28;;;30.65;;
71202;SDS011;58929;47.490;19.090;2023-01-15T09:09:52;38.90;;;23.60;;
71202;SDS011;58929;47.490;19.090;2023-01-15T09:12:20;39.80;;;23.50;;
71202;SDS011;58929;47.490;19.090;2023-01-15T09:14:54;36.47;;;23.23;;
71202;SDS011;58929;47.490;19.090;2023-01-15T09:17:29;36.30;;;22.55;;
71202;SDS011;58929;47.490;19.090;2023-01-15T09:19:57;42.35;;;21.65;;
71202;SDS011;58929;47.490;19.090;2023-01-15T09:22:28;42.72;;;21.17;;
71202;SDS011;58929;47.490;19.090;2023-01-15T09:24:56;32.47;;;19.38;;
71202;SDS011;58929;47.490;19.090;2023-01-15T09:27:27;30.15;;;17.52;;
71202;SDS011;58929;47.490;19.090;2023-01-15T09:29:57;31.60;;;18.27;;
71202;SDS011;58929;47.490;19.090;2023-01-15T09:32:25;32.20;;;17.95;;
71202;SDS011;58929;47.490;19.090;2023-01-15T09:34:53;32.22;;;19.88;;
71202;SDS011;58929;47.490;19.090;2023-01-15T09:37:21;29.80;;;18.48;;
71202;SDS011;58929;47.490;19.090;2023-01-15T09:39:49;38.90;;;21.00;;
71202;SDS011;58929;47.490;19.090;2023-01-15T09:42:22;37.08;;;25.27;;
71202;SDS011;58929;47.490;19.090;2023-01-15T09:45:00;31.65;;;18.05;;
71202;SDS011;58929;47.490;19.090;2023-01-15T09:47:32;29.98;;;17.27;;
71202;SDS011;58929;47.490;19.090;2023-01-15T09:50:11;30.65;;;17.55;;
71202;SDS011;58929;47.490;19.090;2023-01-15T09:55:25;28.17;;;16.75;;
71202;SDS011;58929;47.490;19.090;2023-01-15T09:57:54;29.75;;;18.70;;
71202;SDS011;58929;47.490;19.090;2023-01-15T10:00:25;26.95;;;17.48;;
71202;SDS011;58929;47.490;19.090;2023-01-15T10:02:54;26.98;;;16.75;;
71202;SDS011;58929;47.490;19.090;2023-01-15T10:05:27;28.98;;;17.75;;
71202;SDS011;58929;47.490;19.090;2023-01-15T10:08:01;30.98;;;18.05;;
71202;SDS011;58929;47.490;19.090;2023-01-15T10:10:31;24.48;;;16.05;;
71202;SDS011;58929;47.490;19.090;2023-01-15T10:13:05;27.83;;;15.93;;
71202;SDS011;58929;47.490;19.090;2023-01-15T10:15:37;29.40;;;15.68;;
71202;SDS011;58929;47.490;19.090;2023-01-15T10:18:10;25.45;;;14.90;;
71202;SDS011;58929;47.490;19.090;2023-01-15T10:20:45;22.73;;;14.68;;
71202;SDS011;58929;47.490;19.090;2023-01-15T10:23:26;24.63;;;15.45;;
71202;SDS011;58929;47.490;19.090;2023-01-15T10:25:59;24.25;;;15.18;;
71202;SDS011;58929;47.490;19.090;2023-01-15T10:28:30;26.20;;;15.25;;
71202;SDS011;58929;47.490;19.090;2023-01-15T10:31:01;25.13;;;15.68;;
71202;SDS011;58929;47.490;19.090;2023-01-15T10:33:40;23.73;;;14.85;;
71202;SDS011;58929;47.490;19.090;2023-01-15T10:36:18;23.33;;;14.07;;
71202;SDS011;58929;47.490;19.090;2023-01-15T10:38:49;20.48;;;14.52;;
71202;SDS011;58929;47.490;19.090;2023-01-15T10:41:23;24.48;;;14.00;;
71202;SDS011;58929;47.490;19.090;2023-01-15T10:43:56;23.83;;;13.52;;
71202;SDS011;58929;47.490;19.090;2023-01-15T10:46:28;22.58;;;13.48;;
71202;SDS011;58929;47.490;19.090;2023-01-15T10:49:01;22.58;;;14.05;;
71202;SDS011;58929;47.490;19.090;2023-01-15T10:51:33;21.55;;;13.52;;
71202;SDS011;58929;47.490;19.090;2023-01-15T10:54:04;22.05;;;13.40;;
71202;SDS011;58929;47.490;19.090;2023-01-15T10:56:39;24.27;;;13.18;;
71202;SDS011;58929;47.490;19.090;2023-01-15T10:59:10;42.80;;;22.65;;
71202;SDS011;58929;47.490;19.090;2023-01-15T11:01:41;26.48;;;13.45;;
71202;SDS011;58929;47.490;19.090;2023-01-15T11:04:09;18.75;;;11.80;;
71202;SDS011;58929;47.490;19.090;2023-01-15T11:06:39;19.65;;;12.43;;
71202;SDS011;58929;47.490;19.090;2023-01-15T11:09:08;24.25;;;11.75;;
71202;SDS011;58929;47.490;19.090;2023-01-15T11:11:44;18.20;;;12.07;;
71202;SDS011;58929;47.490;19.090;2023-01-15T11:14:31;23.73;;;12.75;;
71202;SDS011;58929;47.490;19.090;2023-01-15T11:17:19;21.73;;;12.75;;
71202;SDS011;58929;47.490;19.090;2023-01-15T11:20:10;20.50;;;12.07;;
71202;SDS011;58929;47.490;19.090;2023-01-15T11:22:39;19.02;;;12.38;;
71202;SDS011;58929;47.490;19.090;2023-01-15T11:25:10;20.80;;;13.18;;
71202;SDS011;58929;47.490;19.090;2023-01-15T11:27:38;22.52;;;12.98;;
71202;SDS011;58929;47.490;19.090;2023-01-15T11:30:23;21.95;;;13.77;;
71202;SDS011;58929;47.490;19.090;2023-01-15T11:32:55;23.02;;;13.73;;
71202;SDS011;58929;47.490;19.090;2023-01-15T11:35:24;23.20;;;14.02;;
71202;SDS011;58929;47.490;19.090;2023-01-15T11:38:02;24.65;;;14.50;;
71202;SDS011;58929;47.490;19.090;2023-01-15T11:43:01;24.70;;;15.85;;
71202;SDS011;58929;47.490;19.090;2023-01-15T11:45:47;25.77;;;15.57;;
71202;SDS011;58929;47.490;19.090;2023-01-15T11:48:41;27.55;;;16.63;;
71202;SDS011;58929;47.490;19.090;2023-01-15T11:51:23;28.50;;;14.80;;
71202;SDS011;58929;47.490;19.090;2023-01-15T11:53:58;23.88;;;15.65;;
71202;SDS011;58929;47.490;19.090;2023-01-15T11:56:29;28.45;;;16.77;;
71202;SDS011;58929;47.490;19.090;2023-01-15T11:59:01;33.00;;;16.95;;
71202;SDS011;58929;47.490;19.090;2023-01-15T12:01:30;28.10;;;16.63;;
71202;SDS011;58929;47.490;19.090;2023-01-15T12:04:02;30.10;;;16.90;;
71202;SDS011;58929;47.490;19.090;2023-01-15T12:06:33;26.15;;;15.82;;
71202;SDS011;58929;47.490;19.090;2023-01-15T12:09:05;25.35;;;15.82;;
71202;SDS011;58929;47.490;19.090;2023-01-15T12:11:46;29.05;;;15.55;;
71202;SDS011;58929;47.490;19.090;2023-01-15T12:14:30;39.30;;;23.50;;
71202;SDS011;58929;47.490;19.090;2023-01-15T12:17:04;28.17;;;18.55;;
71202;SDS011;58929;47.490;19.090;2023-01-15T12:19:38;29.67;;;16.92;;
71202;SDS011;58929;47.490;19.090;2023-01-15T12:22:09;29.52;;;16.67;;
71202;SDS011;58929;47.490;19.090;2023-01-15T12:27:36;27.20;;;17.35;;
71202;SDS011;58929;47.490;19.090;2023-01-15T12:30:12;32.88;;;18.48;;
71202;SDS011;58929;47.490;19.090;2023-01-15T12:32:42;32.58;;;18.15;;
71202;SDS011;58929;47.490;19.090;2023-01-15T12:35:14;29.60;;;17.25;;
71202;SDS011;58929;47.490;19.090;2023-01-15T12:37:44;27.92;;;16.95;;
71202;SDS011;58929;47.490;19.090;2023-01-15T12:40:16;27.10;;;16.27;;
71202;SDS011;58929;47.490;19.090;2023-01-15T12:42:51;27.13;;;17.05;;
71202;SDS011;58929;47.490;19.090;2023-01-15T12:45:37;28.42;;;16.92;;
71202;SDS011;58929;47.490;19.090;2023-01-15T12:48:11;29.90;;;17.30;;
71202;SDS011;58929;47.490;19.090;2023-01-15T12:50:42;32.90;;;17.45;;
71202;SDS011;58929;47.490;19.090;2023-01-15T12:53:12;29.20;;;17.02;;
71202;SDS011;58929;47.490;19.090;2023-01-15T12:55:43;27.40;;;16.80;;
71202;SDS011;58929;47.490;19.090;2023-01-15T12:58:18;32.70;;;17.73;;
71202;SDS011;58929;47.490;19.090;2023-01-15T13:00:48;39.30;;;22.65;;
71202;SDS011;58929;47.490;19.090;2023-01-15T13:03:18;26.95;;;16.05;;
71202;SDS011;58929;47.490;19.090;2023-01-15T13:05:49;26.67;;;16.45;;
71202;SDS011;58929;47.490;19.090;2023-01-15T13:08:19;28.00;;;17.23;;
71202;SDS011;58929;47.490;19.090;2023-01-15T13:10:50;32.10;;;18.13;;
71202;SDS011;58929;47.490;19.090;2023-01-15T13:13:19;31.33;;;17.10;;
71202;SDS011;58929;47.490;19.090;2023-01-15T13:15:51;31.98;;;18.20;;
71202;SDS011;58929;47.490;19.090;2023-01-15T13:18:25;31.05;;;16.90;;
71202;SDS011;58929;47.490;19.090;2023-01-15T13:21:00;35.42;;;20.17;;
71202;SDS011;58929;47.490;19.090;2023-01-15T13:23:38;29.52;;;18.10;;
71202;SDS011;58929;47.490;19.090;2023-01-15T13:26:15;23.45;;;16.08;;
71202;SDS011;58929;47.490;19.090;2023-01-15T13:28:55;27.90;;;17.25;;
71202;SDS011;58929;47.490;19.090;2023-01-15T13:31:38;27.85;;;17.48;;
71202;SDS011;58929;47.490;19.090;2023-01-15T13:34:11;51.97;;;29.67;;
71202;SDS011;58929;47.490;19.090;2023-01-15T13:36:41;27.30;;;17.50;;
71202;SDS011;58929;47.490;19.090;2023-01-15T13:39:13;28.20;;;17.25;;
71202;SDS011;58929;47.490;19.090;2023-01-15T13:41:42;28.15;;;16.85;;
71202;SDS011;58929;47.490;19.090;2023-01-15T13:44:31;28.35;;;16.80;;
71202;SDS011;58929;47.490;19.090;2023-01-15T13:47:02;26.65;;;16.13;;
71202;SDS011;58929;47.490;19.090;2023-01-15T13:49:33;30.75;;;16.38;;
71202;SDS011;58929;47.490;19.090;2023-01-15T13:52:04;28.23;;;16.08;;
71202;SDS011;58929;47.490;19.090;2023-01-15T13:54:39;25.70;;;15.30;;
71202;SDS011;58929;47.490;19.090;2023-01-15T13:57:09;33.75;;;17.15;;
71202;SDS011;58929;47.490;19.090;2023-01-15T13:59:39;25.27;;;15.30;;
71202;SDS011;58929;47.490;19.090;2023-01-15T14:02:23;24.73;;;15.27;;
71202;SDS011;58929;47.490;19.090;2023-01-15T14:04:52;28.58;;;16.98;;
71202;SDS011;58929;47.490;19.090;2023-01-15T14:07:35;23.50;;;15.57;;
71202;SDS011;58929;47.490;19.090;2023-01-15T14:10:07;22.30;;;13.93;;
71202;SDS011;58929;47.490;19.090;2023-01-15T14:12:40;24.08;;;14.38;;
71202;SDS011;58929;47.490;19.090;2023-01-15T14:18:03;29.27;;;16.23;;
71202;SDS011;58929;47.490;19.090;2023-01-15T14:20:37;24.40;;;14.23;;
71202;SDS011;58929;47.490;19.090;2023-01-15T14:23:19;25.05;;;15.18;;
71202;SDS011;58929;47.490;19.090;2023-01-15T14:25:55;30.40;;;16.25;;
71202;SDS011;58929;47.490;19.090;2023-01-15T14:28:33;26.80;;;15.90;;
71202;SDS011;58929;47.490;19.090;2023-01-15T14:34:10;25.13;;;15.68;;
71202;SDS011;58929;47.490;19.090;2023-01-15T14:36:40;29.38;;;18.02;;
71202;SDS011;58929;47.490;19.090;2023-01-15T14:39:21;26.38;;;15.70;;
71202;SDS011;58929;47.490;19.090;2023-01-15T14:41:54;26.45;;;15.82;;
71202;SDS011;58929;47.490;19.090;2023-01-15T14:44:37;27.67;;;16.30;;
71202;SDS011;58929;47.490;19.090;2023-01-15T14:47:10;26.42;;;16.55;;
71202;SDS011;58929;47.490;19.090;2023-01-15T14:49:42;27.90;;;15.82;;
71202;SDS011;58929;47.490;19.090;2023-01-15T14:52:15;27.15;;;16.42;;